createdAt,value
2019-05-25T00:01:23.542Z,16.70
2019-05-25T00:03:51.146Z,16.70
2019-05-25T00:06:18.663Z,16.60
2019-05-25T00:08:46.450Z,16.60
2019-05-25T00:11:14.025Z,16.50
2019-05-25T00:13:41.572Z,16.50
2019-05-25T00:16:09.171Z,16.50
2019-05-25T00:18:36.686Z,16.50
2019-05-25T00:21:04.210Z,16.50
2019-05-25T00:23:31.704Z,16.50
2019-05-25T00:25:59.651Z,16.50
2019-05-25T00:28:27.462Z,16.50
2019-05-25T00:30:55.072Z,16.40
2019-05-25T00:33:22.638Z,16.40
2019-05-25T00:35:50.144Z,16.20
2019-05-25T00:38:17.693Z,16.10
2019-05-25T00:40:45.193Z,16.10
2019-05-25T00:43:13.017Z,16.00
2019-05-25T00:45:40.448Z,16.00
2019-05-25T00:48:08.029Z,16.00
2019-05-25T00:50:35.789Z,15.90
2019-05-25T00:53:03.385Z,15.90
2019-05-25T00:55:30.903Z,15.90
2019-05-25T00:57:58.681Z,15.80
2019-05-25T01:00:26.964Z,15.80
2019-05-25T01:02:54.430Z,15.80
2019-05-25T01:05:22.035Z,15.80
2019-05-25T01:07:49.871Z,15.80
2019-05-25T01:10:17.573Z,15.80
2019-05-25T01:12:45.105Z,15.80
2019-05-25T01:15:13.303Z,15.80
2019-05-25T01:17:40.755Z,15.70
2019-05-25T01:20:09.140Z,15.60
2019-05-25T01:22:36.580Z,15.60
2019-05-25T01:25:04.847Z,15.70
2019-05-25T01:27:32.558Z,15.70
2019-05-25T01:30:00.121Z,15.70
2019-05-25T01:32:27.648Z,15.60
2019-05-25T01:34:55.180Z,15.60
2019-05-25T01:37:22.748Z,15.40
2019-05-25T01:39:50.357Z,15.30
2019-05-25T01:42:18.149Z,15.30
2019-05-25T01:44:45.709Z,15.30
2019-05-25T01:47:13.564Z,15.40
2019-05-25T01:49:41.085Z,15.30
2019-05-25T01:52:08.598Z,15.30
2019-05-25T01:54:36.042Z,15.30
2019-05-25T01:57:03.620Z,15.30
2019-05-25T01:59:31.611Z,15.30
2019-05-25T02:01:59.329Z,15.30
2019-05-25T02:04:26.906Z,15.30
2019-05-25T02:06:54.472Z,15.30
2019-05-25T02:09:22.021Z,15.20
2019-05-25T02:11:49.622Z,15.20
2019-05-25T02:14:17.152Z,15.30
2019-05-25T02:16:44.762Z,15.30
2019-05-25T02:19:12.168Z,15.30
2019-05-25T02:21:39.866Z,15.20
2019-05-25T02:24:07.298Z,15.20
2019-05-25T02:26:35.019Z,15.20
2019-05-25T02:29:02.950Z,15.20
2019-05-25T02:31:30.475Z,15.10
2019-05-25T02:33:57.907Z,15.10
2019-05-25T02:36:25.435Z,15.10
2019-05-25T02:38:52.971Z,15.20
2019-05-25T02:41:20.945Z,15.20
2019-05-25T02:43:48.504Z,15.20
2019-05-25T02:46:16.031Z,15.20
2019-05-25T02:48:43.541Z,15.10
2019-05-25T02:51:11.080Z,15.10
2019-05-25T02:53:38.588Z,15.10
2019-05-25T02:56:06.144Z,15.10
2019-05-25T02:58:33.661Z,15.10
2019-05-25T03:01:01.561Z,15.10
2019-05-25T03:03:29.140Z,15.00
2019-05-25T03:05:57.275Z,14.90
2019-05-25T03:08:24.843Z,14.90
2019-05-25T03:10:53.029Z,14.90
2019-05-25T03:13:20.875Z,14.90
2019-05-25T03:15:48.348Z,14.90
2019-05-25T03:18:16.097Z,14.90
2019-05-25T03:20:43.702Z,14.90
2019-05-25T03:23:11.175Z,15.00
2019-05-25T03:25:49.255Z,14.90
2019-05-25T03:28:08.402Z,15.00
2019-05-25T03:30:36.697Z,14.90
2019-05-25T03:33:04.774Z,14.90
2019-05-25T03:35:32.404Z,14.90
2019-05-25T03:38:00.077Z,14.90
2019-05-25T03:40:28.853Z,14.90
2019-05-25T03:42:56.361Z,14.80
2019-05-25T03:45:23.854Z,14.80
2019-05-25T03:47:51.486Z,14.80
2019-05-25T03:50:19.349Z,14.80
2019-05-25T03:52:46.986Z,14.80
2019-05-25T03:55:14.564Z,14.80
2019-05-25T03:57:42.310Z,14.80
2019-05-25T04:00:10.215Z,14.70
2019-05-25T04:02:37.813Z,14.80
2019-05-25T04:05:05.312Z,14.70
2019-05-25T04:07:32.890Z,14.70
2019-05-25T04:10:00.402Z,14.70
2019-05-25T04:12:27.953Z,14.70
2019-05-25T04:14:55.805Z,14.70
2019-05-25T04:17:23.458Z,14.70
2019-05-25T04:19:51.051Z,14.60
2019-05-25T04:22:18.593Z,14.70
2019-05-25T04:24:46.125Z,14.70
2019-05-25T04:27:13.848Z,14.70
2019-05-25T04:29:41.404Z,14.70
2019-05-25T04:32:08.939Z,14.60
2019-05-25T04:34:36.478Z,14.50
2019-05-25T04:37:04.337Z,14.60
2019-05-25T04:39:31.838Z,14.60
2019-05-25T04:41:59.551Z,14.60
2019-05-25T04:44:27.105Z,14.70
2019-05-25T04:46:54.593Z,14.70
2019-05-25T04:49:22.137Z,14.80
2019-05-25T04:51:50.469Z,14.80
2019-05-25T04:54:18.537Z,14.90
2019-05-25T04:56:46.385Z,14.90
2019-05-25T04:59:13.947Z,15.00
2019-05-25T05:01:41.532Z,15.00
2019-05-25T05:04:09.069Z,15.00
2019-05-25T05:06:36.510Z,15.10
2019-05-25T05:09:05.842Z,15.10
2019-05-25T05:11:33.411Z,15.20
2019-05-25T05:14:00.935Z,15.20
2019-05-25T05:16:28.452Z,15.20
2019-05-25T05:18:55.986Z,15.20
2019-05-25T05:21:23.544Z,15.20
2019-05-25T05:23:50.973Z,15.30
2019-05-25T05:26:18.587Z,15.30
2019-05-25T05:28:49.060Z,15.30
2019-05-25T05:31:23.421Z,15.30
2019-05-25T05:33:46.271Z,15.40
2019-05-25T05:36:14.540Z,15.40
2019-05-25T05:38:42.969Z,15.40
2019-05-25T05:41:11.929Z,15.50
2019-05-25T05:43:42.547Z,15.50
2019-05-25T05:46:12.433Z,15.60
2019-05-25T05:48:40.382Z,15.60
2019-05-25T05:51:10.409Z,15.70
2019-05-25T05:53:39.260Z,15.70
2019-05-25T05:56:06.797Z,15.90
2019-05-25T05:58:34.341Z,16.00
2019-05-25T06:01:02.034Z,16.00
2019-05-25T06:03:29.899Z,16.10
2019-05-25T06:05:57.573Z,16.10
2019-05-25T06:08:25.412Z,16.20
2019-05-25T06:10:53.196Z,16.20
2019-05-25T06:13:21.485Z,16.20
2019-05-25T06:15:49.304Z,16.30
2019-05-25T06:18:17.031Z,16.40
2019-05-25T06:20:44.574Z,16.50
2019-05-25T06:23:12.743Z,16.60
2019-05-25T06:25:40.275Z,16.60
2019-05-25T06:28:08.123Z,16.70
2019-05-25T06:30:35.719Z,16.70
2019-05-25T06:33:03.267Z,16.90
2019-05-25T06:35:30.825Z,16.80
2019-05-25T06:37:58.685Z,16.80
2019-05-25T06:40:26.611Z,16.80
2019-05-25T06:42:54.366Z,16.90
2019-05-25T06:45:22.091Z,16.80
2019-05-25T06:47:49.909Z,16.80
2019-05-25T06:50:18.231Z,16.80
2019-05-25T06:52:45.790Z,16.90
2019-05-25T06:55:13.903Z,16.90
2019-05-25T06:57:44.090Z,17.00
2019-05-25T07:00:12.155Z,17.10
2019-05-25T07:02:39.773Z,17.10
2019-05-25T07:05:07.984Z,17.10
2019-05-25T07:07:35.441Z,17.20
2019-05-25T07:10:03.552Z,17.10
2019-05-25T07:12:31.490Z,17.20
2019-05-25T07:14:59.265Z,17.20
2019-05-25T07:17:26.887Z,17.10
2019-05-25T07:19:54.889Z,17.20
2019-05-25T07:22:22.569Z,17.40
2019-05-25T07:24:50.928Z,17.50
2019-05-25T07:27:19.159Z,17.70
2019-05-25T07:29:46.546Z,17.70
2019-05-25T07:32:14.417Z,17.50
2019-05-25T07:34:41.928Z,17.70
2019-05-25T07:37:09.773Z,17.80
2019-05-25T07:39:37.459Z,18.00
2019-05-25T07:42:05.043Z,18.10
2019-05-25T07:44:32.984Z,18.00
2019-05-25T07:47:00.523Z,18.00
2019-05-25T07:49:28.130Z,18.10
2019-05-25T07:51:55.877Z,18.10
2019-05-25T07:54:23.401Z,18.10
2019-05-25T07:56:51.255Z,18.20
2019-05-25T07:59:19.043Z,18.20
2019-05-25T08:01:47.139Z,18.30
2019-05-25T08:04:14.743Z,18.40
2019-05-25T08:06:42.360Z,18.40
2019-05-25T08:09:10.194Z,18.40
2019-05-25T08:11:37.620Z,18.40
2019-05-25T08:14:05.520Z,18.40
2019-05-25T08:16:32.951Z,18.60
2019-05-25T08:19:00.551Z,18.80
2019-05-25T08:21:28.399Z,18.80
2019-05-25T08:23:56.260Z,18.90
2019-05-25T08:26:23.770Z,18.90
2019-05-25T08:28:51.479Z,19.00
2019-05-25T08:31:19.396Z,19.20
2019-05-25T08:33:47.147Z,19.30
2019-05-25T08:36:15.083Z,19.40
2019-05-25T08:38:42.536Z,19.40
2019-05-25T08:41:10.060Z,19.50
2019-05-25T08:43:37.605Z,19.50
2019-05-25T08:46:05.605Z,19.70
2019-05-25T08:48:33.379Z,19.80
2019-05-25T08:51:01.133Z,19.80
2019-05-25T08:53:40.524Z,19.80
2019-05-25T08:55:58.674Z,19.90
2019-05-25T08:58:26.083Z,20.10
2019-05-25T09:00:54.211Z,20.20
2019-05-25T09:03:21.809Z,20.40
2019-05-25T09:05:49.340Z,20.50
2019-05-25T09:08:16.924Z,20.60
2019-05-25T09:10:44.736Z,20.70
2019-05-25T09:13:12.319Z,20.80
2019-05-25T09:15:40.150Z,20.70
2019-05-25T09:18:07.785Z,20.70
2019-05-25T09:20:35.985Z,20.90
2019-05-25T09:23:03.935Z,21.00
2019-05-25T09:25:34.565Z,21.20
2019-05-25T09:28:02.109Z,21.40
2019-05-25T09:30:29.723Z,21.40
2019-05-25T09:32:57.274Z,21.40
2019-05-25T09:35:25.245Z,21.60
2019-05-25T09:37:53.135Z,21.70
2019-05-25T09:40:21.694Z,21.80
2019-05-25T09:42:49.822Z,21.90
2019-05-25T09:45:17.956Z,22.00
2019-05-25T09:47:46.095Z,22.30
2019-05-25T09:50:14.062Z,22.40
2019-05-25T09:52:41.499Z,22.60
2019-05-25T09:55:09.925Z,22.60
2019-05-25T09:57:41.352Z,22.60
2019-05-25T10:00:08.783Z,22.50
2019-05-25T10:02:36.380Z,22.70
2019-05-25T10:05:04.469Z,22.80
2019-05-25T10:07:32.498Z,22.90
2019-05-25T10:10:00.479Z,22.90
2019-05-25T10:12:28.111Z,22.90
2019-05-25T10:14:55.681Z,22.70
2019-05-25T10:17:23.275Z,22.80
2019-05-25T10:19:51.214Z,22.90
2019-05-25T10:22:18.779Z,22.80
2019-05-25T10:24:46.347Z,22.70
2019-05-25T10:27:14.910Z,22.60
2019-05-25T10:29:43.250Z,22.50
2019-05-25T10:32:10.806Z,22.40
2019-05-25T10:34:38.339Z,22.30
2019-05-25T10:37:06.275Z,22.40
2019-05-25T10:39:34.111Z,22.60
2019-05-25T10:42:01.728Z,22.70
2019-05-25T10:44:29.219Z,22.70
2019-05-25T10:46:57.020Z,23.00
2019-05-25T10:49:24.960Z,23.10
2019-05-25T10:51:52.626Z,23.20
2019-05-25T10:54:20.206Z,23.30
2019-05-25T10:56:47.717Z,23.70
2019-05-25T10:59:15.640Z,23.70
2019-05-25T11:01:43.610Z,23.90
2019-05-25T11:04:11.508Z,24.40
2019-05-25T11:06:39.137Z,24.80
2019-05-25T11:09:06.694Z,25.10
2019-05-25T11:11:34.220Z,24.90
2019-05-25T11:14:01.733Z,24.80
2019-05-25T11:16:29.496Z,24.30
2019-05-25T11:18:57.079Z,24.00
2019-05-25T11:21:24.620Z,24.00
2019-05-25T11:23:52.080Z,24.00
2019-05-25T11:26:19.837Z,23.90
2019-05-25T11:28:48.367Z,23.80
2019-05-25T11:31:16.179Z,23.70
2019-05-25T11:33:43.723Z,23.40
2019-05-25T11:36:11.442Z,23.10
2019-05-25T11:38:38.907Z,23.20
2019-05-25T11:41:06.703Z,23.50
2019-05-25T11:43:34.531Z,23.70
2019-05-25T11:46:02.192Z,24.00
2019-05-25T11:48:30.510Z,24.00
2019-05-25T11:50:58.115Z,24.20
2019-05-25T11:53:25.682Z,24.30
2019-05-25T11:55:53.527Z,24.40
2019-05-25T11:58:21.319Z,24.50
2019-05-25T12:00:51.612Z,24.60
2019-05-25T12:03:18.141Z,24.80
2019-05-25T12:05:46.019Z,25.10
2019-05-25T12:08:13.816Z,25.20
2019-05-25T12:10:41.975Z,25.30
2019-05-25T12:13:09.575Z,25.40
2019-05-25T12:15:37.374Z,25.40
2019-05-25T12:18:05.181Z,25.40
2019-05-25T12:20:32.728Z,25.30
2019-05-25T12:23:00.262Z,25.30
2019-05-25T12:25:27.945Z,25.20
2019-05-25T12:27:55.522Z,25.20
2019-05-25T12:30:23.144Z,25.20
2019-05-25T12:32:50.659Z,25.00
2019-05-25T12:35:18.493Z,24.90
2019-05-25T12:37:46.077Z,24.70
2019-05-25T12:40:14.794Z,24.50
2019-05-25T12:42:45.663Z,24.40
2019-05-25T12:45:12.176Z,24.30
2019-05-25T12:47:40.033Z,24.20
2019-05-25T12:50:07.745Z,24.00
2019-05-25T12:52:35.381Z,24.00
2019-05-25T12:55:03.385Z,24.20
2019-05-25T12:57:31.191Z,24.50
2019-05-25T13:00:14.232Z,24.90
2019-05-25T13:02:28.847Z,25.10
2019-05-25T13:04:56.620Z,25.30
2019-05-25T13:07:24.478Z,25.30
2019-05-25T13:09:52.626Z,25.50
2019-05-25T13:12:20.241Z,25.50
2019-05-25T13:14:48.158Z,25.50
2019-05-25T13:17:15.946Z,25.60
2019-05-25T13:19:43.770Z,25.70
2019-05-25T13:22:11.286Z,26.00
2019-05-25T13:24:39.232Z,26.00
2019-05-25T13:27:06.822Z,26.10
2019-05-25T13:29:34.367Z,26.10
2019-05-25T13:32:02.290Z,26.30
2019-05-25T13:34:29.798Z,26.30
2019-05-25T13:36:57.382Z,26.30
2019-05-25T13:39:25.174Z,26.00
2019-05-25T13:41:52.727Z,25.90
2019-05-25T13:44:20.604Z,25.90
2019-05-25T13:46:48.032Z,25.90
2019-05-25T13:49:15.914Z,25.90
2019-05-25T13:51:44.108Z,25.80
2019-05-25T13:54:11.617Z,25.90
2019-05-25T13:56:39.209Z,25.80
2019-05-25T13:59:06.592Z,25.80
2019-05-25T14:01:34.371Z,25.80
2019-05-25T14:04:02.300Z,25.70
2019-05-25T14:06:30.165Z,25.50
2019-05-25T14:08:57.892Z,25.30
2019-05-25T14:11:25.775Z,25.40
2019-05-25T14:13:53.764Z,25.60
2019-05-25T14:16:21.729Z,25.80
2019-05-25T14:18:49.553Z,26.00
2019-05-25T14:21:17.485Z,25.70
2019-05-25T14:23:44.939Z,25.90
2019-05-25T14:26:12.546Z,25.90
2019-05-25T14:28:39.954Z,26.00
2019-05-25T14:31:07.714Z,25.90
2019-05-25T14:33:35.617Z,26.00
2019-05-25T14:36:03.684Z,26.20
2019-05-25T14:38:31.199Z,26.40
2019-05-25T14:40:58.650Z,26.30
2019-05-25T14:43:26.565Z,26.40
2019-05-25T14:45:54.070Z,26.50
2019-05-25T14:48:21.637Z,26.60
2019-05-25T14:50:49.178Z,26.70
2019-05-25T14:53:16.762Z,26.70
2019-05-25T14:55:44.332Z,27.00
2019-05-25T14:58:12.970Z,26.90
2019-05-25T15:00:40.827Z,27.00
2019-05-25T15:03:08.693Z,27.10
2019-05-25T15:05:36.246Z,26.80
2019-05-25T15:08:03.808Z,26.20
2019-05-25T15:10:31.669Z,25.90
2019-05-25T15:12:59.212Z,26.10
2019-05-25T15:15:26.728Z,26.30
2019-05-25T15:17:54.401Z,26.40
2019-05-25T15:20:21.945Z,25.90
2019-05-25T15:22:49.484Z,25.40
2019-05-25T15:25:17.164Z,25.50
2019-05-25T15:27:44.620Z,25.80
2019-05-25T15:30:12.844Z,26.00
2019-05-25T15:32:40.891Z,26.30
2019-05-25T15:35:08.419Z,26.40
2019-05-25T15:37:36.077Z,26.30
2019-05-25T15:40:06.369Z,26.00
2019-05-25T15:42:33.836Z,25.80
2019-05-25T15:45:02.128Z,25.40
2019-05-25T15:47:30.064Z,25.00
2019-05-25T15:49:57.611Z,25.00
2019-05-25T15:52:25.194Z,24.90
2019-05-25T15:54:53.062Z,25.30
2019-05-25T15:57:21.087Z,25.50
2019-05-25T15:59:48.610Z,25.60
2019-05-25T16:02:16.204Z,25.40
2019-05-25T16:04:43.817Z,25.20
2019-05-25T16:07:11.354Z,25.10
2019-05-25T16:09:38.953Z,24.70
2019-05-25T16:12:06.994Z,24.40
2019-05-25T16:14:34.510Z,24.10
2019-05-25T16:17:02.152Z,23.90
2019-05-25T16:19:29.727Z,23.80
2019-05-25T16:21:57.296Z,23.60
2019-05-25T16:24:24.847Z,23.50
2019-05-25T16:26:52.716Z,23.40
2019-05-25T16:29:20.635Z,23.80
2019-05-25T16:31:48.472Z,24.60
2019-05-25T16:34:16.051Z,25.30
2019-05-25T16:36:43.572Z,25.90
2019-05-25T16:39:11.088Z,25.60
2019-05-25T16:41:38.663Z,25.00
2019-05-25T16:44:06.259Z,24.70
2019-05-25T16:46:34.237Z,24.30
2019-05-25T16:49:01.813Z,24.00
2019-05-25T16:51:30.018Z,24.00
2019-05-25T16:53:57.991Z,24.20
2019-05-25T16:56:25.475Z,25.50
2019-05-25T16:58:53.047Z,26.30
2019-05-25T17:01:21.032Z,27.10
2019-05-25T17:03:48.574Z,28.00
2019-05-25T17:06:16.098Z,28.20
2019-05-25T17:08:43.676Z,28.60
2019-05-25T17:11:11.281Z,28.30
2019-05-25T17:13:38.837Z,27.10
2019-05-25T17:16:06.410Z,26.10
2019-05-25T17:18:34.047Z,25.30
2019-05-25T17:21:01.689Z,24.60
2019-05-25T17:23:29.258Z,24.20
2019-05-25T17:25:57.228Z,23.90
2019-05-25T17:28:24.829Z,23.60
2019-05-25T17:30:52.417Z,23.40
2019-05-25T17:33:20.013Z,23.30
2019-05-25T17:35:47.598Z,23.10
2019-05-25T17:38:15.129Z,22.80
2019-05-25T17:40:43.108Z,22.80
2019-05-25T17:43:10.752Z,22.60
2019-05-25T17:45:38.643Z,22.50
2019-05-25T17:48:06.252Z,22.30
2019-05-25T17:50:33.785Z,22.20
2019-05-25T17:53:01.370Z,22.10
2019-05-25T17:55:29.274Z,21.90
2019-05-25T17:57:57.043Z,21.80
2019-05-25T18:00:46.848Z,21.70
2019-05-25T18:03:14.401Z,21.60
2019-05-25T18:05:42.070Z,21.50
2019-05-25T18:08:09.700Z,21.40
2019-05-25T18:10:51.108Z,21.30
2019-05-25T18:13:06.566Z,21.20
2019-05-25T18:15:34.610Z,21.10
2019-05-25T18:18:02.474Z,21.00
2019-05-25T18:20:30.005Z,20.90
2019-05-25T18:22:57.615Z,20.80
2019-05-25T18:25:25.129Z,20.80
2019-05-25T18:27:52.900Z,20.70
2019-05-25T18:30:22.377Z,20.70
2019-05-25T18:32:50.199Z,20.70
2019-05-25T18:35:17.696Z,20.70
2019-05-25T18:37:45.210Z,20.60
2019-05-25T18:40:14.428Z,20.30
2019-05-25T18:42:42.082Z,20.30
2019-05-25T18:45:10.291Z,20.20
2019-05-25T18:47:38.345Z,20.10
2019-05-25T18:50:06.738Z,20.00
2019-05-25T18:52:34.583Z,19.90
2019-05-25T18:55:02.174Z,19.90
2019-05-25T18:57:29.760Z,19.80
2019-05-25T18:59:57.248Z,19.70
2019-05-25T19:02:24.889Z,19.70
2019-05-25T19:04:59.468Z,19.60
2019-05-25T19:07:22.682Z,19.60
2019-05-25T19:09:50.206Z,19.60
2019-05-25T19:12:18.483Z,19.60
2019-05-25T19:14:46.656Z,19.60
2019-05-25T19:17:14.179Z,19.70
2019-05-25T19:19:41.931Z,19.70
2019-05-25T19:22:09.449Z,19.70
2019-05-25T19:24:37.341Z,19.70
2019-05-25T19:27:04.981Z,19.60
2019-05-25T19:29:32.554Z,19.60
2019-05-25T19:32:00.693Z,19.60
2019-05-25T19:34:28.956Z,19.40
2019-05-25T19:36:57.010Z,19.40
2019-05-25T19:39:25.002Z,19.40
2019-05-25T19:41:53.816Z,19.40
2019-05-25T19:44:21.449Z,19.30
2019-05-25T19:46:49.345Z,19.20
2019-05-25T19:49:16.866Z,19.10
2019-05-25T19:51:44.850Z,19.00
2019-05-25T19:54:12.770Z,19.00
2019-05-25T19:56:40.371Z,19.00
2019-05-25T19:59:08.705Z,19.00
2019-05-25T20:01:36.256Z,19.00
2019-05-25T20:04:04.883Z,18.90
2019-05-25T20:06:33.075Z,18.80
2019-05-25T20:09:00.915Z,18.80
2019-05-25T20:11:28.415Z,18.60
2019-05-25T20:13:56.277Z,18.50
2019-05-25T20:16:25.257Z,18.60
2019-05-25T20:18:53.195Z,18.50
2019-05-25T20:21:21.027Z,18.30
2019-05-25T20:23:48.595Z,18.30
2019-05-25T20:26:16.475Z,18.20
2019-05-25T20:28:44.250Z,18.20
2019-05-25T20:31:12.066Z,18.10
2019-05-25T20:33:39.898Z,18.20
2019-05-25T20:36:07.593Z,18.20
2019-05-25T20:38:35.458Z,18.20
2019-05-25T20:41:03.019Z,18.20
2019-05-25T20:43:30.596Z,18.20
2019-05-25T20:45:58.741Z,18.30
2019-05-25T20:48:26.218Z,18.30
2019-05-25T20:50:54.020Z,18.30
2019-05-25T20:53:21.812Z,18.30
2019-05-25T20:55:49.359Z,18.30
2019-05-25T20:58:17.851Z,18.30
2019-05-25T21:00:45.519Z,18.30
2019-05-25T21:03:13.385Z,18.30
2019-05-25T21:05:50.430Z,18.30
2019-05-25T21:08:10.347Z,18.20
2019-05-25T21:10:37.891Z,18.20
2019-05-25T21:13:05.442Z,18.10
2019-05-25T21:15:33.173Z,18.10
2019-05-25T21:18:01.016Z,18.10
2019-05-25T21:20:28.514Z,18.10
2019-05-25T21:22:55.978Z,18.10
2019-05-25T21:25:23.903Z,18.10
2019-05-25T21:27:51.640Z,18.10
2019-05-25T21:30:38.644Z,18.00
2019-05-25T21:33:06.509Z,18.00
2019-05-25T21:35:34.043Z,18.00
2019-05-25T21:38:01.837Z,17.90
2019-05-25T21:40:29.735Z,17.90
2019-05-25T21:42:57.273Z,17.90
2019-05-25T21:45:25.196Z,17.80
2019-05-25T21:47:56.012Z,17.80
2019-05-25T21:50:22.961Z,17.70
2019-05-25T21:52:50.486Z,17.60
2019-05-25T21:55:18.378Z,17.50
2019-05-25T21:57:46.210Z,17.50
2019-05-25T22:00:18.013Z,17.30
2019-05-25T22:02:45.833Z,17.20
2019-05-25T22:05:13.873Z,17.20
2019-05-25T22:07:42.337Z,17.00
2019-05-25T22:10:10.942Z,17.00
2019-05-25T22:12:40.275Z,17.00
2019-05-25T22:15:09.833Z,16.70
2019-05-25T22:17:38.114Z,16.40
2019-05-25T22:20:05.963Z,16.30
2019-05-25T22:22:33.732Z,16.30
2019-05-25T22:25:01.335Z,16.30
2019-05-25T22:27:28.991Z,16.30
2019-05-25T22:29:57.456Z,16.30
2019-05-25T22:32:25.600Z,16.20
2019-05-25T22:34:56.378Z,16.10
2019-05-25T22:37:24.008Z,16.00
2019-05-25T22:39:52.578Z,15.90
2019-05-25T22:42:20.285Z,15.90
2019-05-25T22:44:48.278Z,15.80
2019-05-25T22:47:16.273Z,15.80
2019-05-25T22:49:44.472Z,15.70
2019-05-25T22:52:12.410Z,15.70
2019-05-25T22:54:40.308Z,15.60
2019-05-25T22:57:08.076Z,15.60
2019-05-25T22:59:35.691Z,15.50
2019-05-25T23:02:03.607Z,15.40
2019-05-25T23:04:31.471Z,15.30
2019-05-25T23:06:59.463Z,15.20
2019-05-25T23:09:27.211Z,15.10
2019-05-25T23:11:54.813Z,15.00
2019-05-25T23:14:22.800Z,15.00
2019-05-25T23:16:50.636Z,15.10
2019-05-25T23:19:18.563Z,14.90
2019-05-25T23:21:46.285Z,14.90
2019-05-25T23:24:14.801Z,14.80
2019-05-25T23:26:42.480Z,14.70
2019-05-25T23:29:10.086Z,14.70
2019-05-25T23:31:38.122Z,14.70
2019-05-25T23:34:06.022Z,14.60
2019-05-25T23:36:34.477Z,14.60
2019-05-25T23:39:11.414Z,14.60
2019-05-25T23:41:39.341Z,14.60
2019-05-25T23:44:27.736Z,14.60
2019-05-25T23:46:55.392Z,14.70
2019-05-25T23:49:23.460Z,14.70
2019-05-25T23:51:51.082Z,14.80
2019-05-25T23:54:25.609Z,14.70
2019-05-25T23:56:53.395Z,14.60
2019-05-25T23:59:23.015Z,14.50
